Flight Track Log - Related Links

Times and Time Zones

All times are in EDT time to prevent confusion due to time zone crossing. See the SWA553 flight status page for this flight to view local times or setup timezone preferences in your user account.

Time Position Orientation Groundspeed Altitude Reporting Facility
EDT Latitude Longitude Course Direction KTS MPH feet Rate Location/Type
10:52PM 39.4833 -119.7667 180° South 243 280 5,800  Level Northern Cal TRACON
10:53PM 39.4167 -119.7667 181° South 235 270 7,600 2,429 Climbing Northern Cal TRACON
10:54PM 39.3439 -119.7681 176° South 285 328 10,900 2,784 Climbing Oakland Center
10:55PM 39.2625 -119.7614 176° South 293 337 13,400 2,400 Climbing Oakland Center
10:56PM 39.1811 -119.7547 179° South 293 337 15,700 2,430 Climbing Oakland Center
10:57PM 39.0933 -119.7533 178° South 300 345 18,300 2,118 Climbing Oakland Center
10:58PM 38.9994 -119.7497 177° South 316 364 19,900 1,664 Climbing Oakland Center
10:59PM 38.8994 -119.7433 177° South 345 397 21,600 2,000 Climbing Oakland Center
11:00PM 38.7908 -119.7372 179° South 369 425 23,900 2,250 Climbing Oakland Center
11:01PM 38.6825 -119.7339 178° South 389 448 26,100 1,350 Climbing Oakland Center
11:02PM 38.5675 -119.7278 177° South 401 461 26,600 446 Climbing Oakland Center
11:03PM 38.4425 -119.7192 177° South 430 495 27,000 298 Climbing Oakland Center
11:04PM 38.3047 -119.7111 178° South 443 510 27,200 1,000 Climbing Oakland Center
11:05PM 38.1753 -119.7053 178° South 462 532 29,000 900 Climbing Oakland Center
11:06PM 38.0417 -119.6997 178° South 467 537 29,000 807 Level Oakland Center
11:07PM 37.9061 -119.6942 177° South 478 550 30,600 1,450 Climbing Oakland Center
11:08PM 37.7725 -119.6861 177° South 483 556 31,900 1,190 Climbing Oakland Center
11:09PM 37.6431 -119.6778 182° South 476 548 33,000 550 Climbing Oakland Center
11:10PM 37.4950 -119.6831 176° South 491 565 33,000  Level Oakland Center
11:11PM 37.3614 -119.6722 180° South 505 581 33,000  Level Oakland Center
11:12PM 37.2403 -119.6717 177° South 499 574 33,000  Level Oakland Center
11:13PM 37.1025 -119.6636 178° South 494 568 33,000  Level Oakland Center
11:14PM 36.9628 -119.6583 178° South 494 568 33,000  Level Oakland Center
11:15PM 36.8292 -119.6528 178° South 494 568 33,000  Level Oakland Center
11:16PM 36.6936 -119.6475 177° South 494 568 33,000  Level Oakland Center
11:17PM 36.5558 -119.6394 178° South 494 568 33,000  Level Oakland Center
11:18PM 36.4203 -119.6342 178° South 494 568 33,000  Level Oakland Center
11:20PM 36.2325 -119.6278 178° South 506 582 33,000  Level Los Angeles Center
11:21PM 36.0969 -119.6219 178° South 506 582 33,000  Level Los Angeles Center
11:22PM 35.9617 -119.6158 182° South 494 568 33,000  Level Los Angeles Center
11:23PM 35.8300 -119.6206 181° South 489 563 33,000  Level Los Angeles Center
11:24PM 35.6922 -119.6247 182° South 489 563 33,000  Level Los Angeles Center
11:25PM 35.5564 -119.6292 174° South 494 568 33,000  Level Los Angeles Center
11:26PM 35.4211 -119.6131 152° Southeast 494 568 33,000  Level Los Angeles Center
11:27PM 35.2983 -119.5342 151° Southeast 489 563 33,000  Level Los Angeles Center
11:28PM 35.1653 -119.4422 150° Southeast 495 570 33,000  Level Los Angeles Center
11:29PM 35.0444 -119.3561 150° Southeast 495 570 33,000 -800 Level Los Angeles Center
11:30PM 34.9214 -119.2703 150° Southeast 506 582 31,400 -2,700 Descending Los Angeles Center
11:31PM 34.7983 -119.1844 151° Southeast 506 582 27,600 -3,150 Descending Los Angeles Center
11:32PM 34.7061 -119.1231 152° Southeast 499 574 25,100 -2,850 Descending Los Angeles Center
11:33PM 34.5828 -119.0431 150° Southeast 474 545 21,900 -2,900 Descending Los Angeles Center
11:34PM 34.4800 -118.9714 151° Southeast 448 516 19,300 -2,600 Descending Los Angeles Center
11:35PM 34.3814 -118.9050 160° South 421 484 16,700 -2,600 Descending Los Angeles Center
11:36PM 34.2781 -118.8589 162° South 401 461 14,100 -2,450 Descending Los Angeles Center
11:37PM 34.1706 -118.8178 156° South 384 442 11,800 -1,750 Descending Los Angeles Center
11:38PM 34.0881 -118.7725 108° East 361 415 10,600 -950 Descending Los Angeles Center
11:39PM 34.0608 -118.6739 104° East 291 335 9,900 -850 Descending Los Angeles Center
11:40PM 34.0419 -118.5856 107° East 274 315 8,900 -1,100 Descending Los Angeles Center
11:41PM 34.0206 -118.4997 99° East 274 315 7,700 -950 Descending Los Angeles Center
11:42PM 34.0117 -118.4292 87° East 261 300 7,000 -1,350 Descending Los Angeles Center
11:43PM 34.0150 -118.3592 84° East 232 267 5,000 -2,000 Descending Los Angeles Center
11:44PM 34.0203 -118.2942 112° Southeast 212 244 3,000 -1,116 Descending Los Angeles Center
11:45PM 34.0000 -118.2333 220° Southwest 175 201 2,600 -233 Descending Southern California TRACON
11:46PM 33.9667 -118.2667 270° West 174 200 2,500 -526 Descending Southern California TRACON
11:47PM 33.9667 -118.3167 239° Southwest 162 186 1,600 -835 Descending Southern California TRACON
11:48PM 33.9500 -118.3500 270° West 122 140 900 -645 Descending Southern California TRACON
11:49PM 33.9500 -118.4000 263° West 120 138 300 -414 Descending Southern California TRACON
11:50PM 33.9467 -118.4350 263° West 128 147 100 -214 Descending Los Angeles Center

Login

Don't have an account? Register now (free) for customized features, flight alerts, and more!